Time;durP1;ratioP1;P1;durP2;ratioP2;P2;SDS_P1;SDS_P2;PMS_P1;PMS_P2;Temp;Humidity;BMP_temperature;BMP_pressure;BME280_temperature;BME280_humidity;BME280_pressure;Samples;Min_cycle;Max_cycle;Signal;HPM_P1;HPM_P2
2024/01/10 00:02:20;;;;;;;0.00;0.00;;;;;;;;;;5003375;28;20612;-77
2024/01/10 00:04:46;;;;;;;0.00;0.00;;;;;;;;;;5012757;28;20054;-76
2024/01/10 00:07:13;;;;;;;0.10;0.10;;;;;;;;;;5009733;28;20121;-76
2024/01/10 00:09:39;;;;;;;0.00;0.00;;;;;;;;;;5020729;28;20091;-75
2024/01/10 00:12:05;;;;;;;0.08;0.08;;;;;;;;;;5022515;28;20061;-76
2024/01/10 00:14:32;;;;;;;0.10;0.10;;;;;;;;;;5009302;28;20074;-75
2024/01/10 00:16:58;;;;;;;0.10;0.10;;;;;;;;;;5010231;28;20537;-76
2024/01/10 00:19:25;;;;;;;0.10;0.10;;;;;;;;;;5010245;28;20086;-76
2024/01/10 00:21:51;;;;;;;0.00;0.00;;;;;;;;;;5009031;28;20513;-76
2024/01/10 00:24:18;;;;;;;0.00;0.00;;;;;;;;;;5008083;28;20508;-76
2024/01/10 00:26:44;;;;;;;0.05;0.05;;;;;;;;;;5010288;28;20057;-76
2024/01/10 00:29:10;;;;;;;0.00;0.00;;;;;;;;;;5009322;28;20054;-76
2024/01/10 00:31:37;;;;;;;0.00;0.00;;;;;;;;;;5009129;28;20117;-76
2024/01/10 00:34:03;;;;;;;0.00;0.00;;;;;;;;;;4992487;28;20054;-78
2024/01/10 00:36:30;;;;;;;0.00;0.00;;;;;;;;;;5009381;28;20141;-77
2024/01/10 00:38:56;;;;;;;0.00;0.00;;;;;;;;;;5002737;28;20059;-77
2024/01/10 00:41:23;;;;;;;0.00;0.00;;;;;;;;;;5008167;28;20583;-76
2024/01/10 00:43:49;;;;;;;0.10;0.10;;;;;;;;;;5009704;28;20093;-76
2024/01/10 00:46:15;;;;;;;0.00;0.00;;;;;;;;;;5009396;28;20181;-76
2024/01/10 00:48:42;;;;;;;0.00;0.00;;;;;;;;;;5009655;28;20089;-76
2024/01/10 00:51:08;;;;;;;0.00;0.00;;;;;;;;;;4990350;28;20536;-75
2024/01/10 00:53:35;;;;;;;0.00;0.00;;;;;;;;;;5009576;28;20521;-75
2024/01/10 00:56:02;;;;;;;0.00;0.00;;;;;;;;;;4991938;28;20054;-76
2024/01/10 00:58:28;;;;;;;0.00;0.00;;;;;;;;;;5008264;28;20480;-76
2024/01/10 01:00:55;;;;;;;0.00;0.00;;;;;;;;;;4990133;28;20058;-77
2024/01/10 01:03:21;;;;;;;0.00;0.00;;;;;;;;;;4992216;28;20144;-76
2024/01/10 01:05:48;;;;;;;0.00;0.00;;;;;;;;;;5004658;28;20145;-77
2024/01/10 01:08:14;;;;;;;0.00;0.00;;;;;;;;;;5009753;28;20054;-77
2024/01/10 01:10:41;;;;;;;0.10;0.10;;;;;;;;;;5007347;28;20130;-77
2024/01/10 01:13:07;;;;;;;0.00;0.00;;;;;;;;;;5008960;28;20540;-77
2024/01/10 01:15:34;;;;;;;0.00;0.00;;;;;;;;;;5005642;28;20117;-77
2024/01/10 01:18:00;;;;;;;0.00;0.00;;;;;;;;;;5009092;28;20054;-77
2024/01/10 01:20:27;;;;;;;0.00;0.00;;;;;;;;;;5005811;28;20055;-77
2024/01/10 01:22:56;;;;;;;0.00;0.00;;;;;;;;;;4993627;28;20564;-77
2024/01/10 01:25:23;;;;;;;0.00;0.00;;;;;;;;;;5004295;28;20468;-77
2024/01/10 01:27:49;;;;;;;0.00;0.00;;;;;;;;;;5010126;28;20141;-76
2024/01/10 01:30:16;;;;;;;0.00;0.00;;;;;;;;;;5007648;28;20077;-76
2024/01/10 01:32:42;;;;;;;0.00;0.00;;;;;;;;;;5007290;28;20150;-76
2024/01/10 01:35:08;;;;;;;0.00;0.00;;;;;;;;;;5008010;28;20054;-76
2024/01/10 01:37:35;;;;;;;0.00;0.00;;;;;;;;;;5008272;28;20149;-77
2024/01/10 01:40:01;;;;;;;0.00;0.00;;;;;;;;;;5006669;28;22249;-78
2024/01/10 01:42:28;;;;;;;0.00;0.00;;;;;;;;;;5006747;28;20073;-77
2024/01/10 01:44:54;;;;;;;0.00;0.00;;;;;;;;;;5008110;28;20867;-76
2024/01/10 01:47:21;;;;;;;0.00;0.00;;;;;;;;;;5000660;28;20058;-76
2024/01/10 01:49:47;;;;;;;0.05;0.05;;;;;;;;;;5006486;28;20056;-75
2024/01/10 01:52:14;;;;;;;0.00;0.00;;;;;;;;;;4990178;28;20966;-77
2024/01/10 01:54:41;;;;;;;0.00;0.00;;;;;;;;;;5007223;28;20059;-76
2024/01/10 01:57:07;;;;;;;0.10;0.10;;;;;;;;;;5006910;28;20077;-76
2024/01/10 01:59:34;;;;;;;0.00;0.00;;;;;;;;;;5007854;28;20153;-76
2024/01/10 02:02:01;;;;;;;0.00;0.00;;;;;;;;;;4990765;28;20062;-76
2024/01/10 02:04:28;;;;;;;0.00;0.00;;;;;;;;;;5005589;28;20516;-76
2024/01/10 02:06:57;;;;;;;1.95;1.85;;;;;;;;;;5002337;28;20055;-76
2024/01/10 02:09:23;;;;;;;0.00;0.00;;;;;;;;;;4990098;28;20187;-76
2024/01/10 02:11:50;;;;;;;0.10;0.10;;;;;;;;;;5007696;28;20054;-76
2024/01/10 02:14:17;;;;;;;0.00;0.00;;;;;;;;;;4990431;28;20144;-76
2024/01/10 02:16:44;;;;;;;0.00;0.00;;;;;;;;;;4988812;28;20085;-77
2024/01/10 02:19:17;;;;;;;0.10;0.10;;;;;;;;;;5007086;28;20054;-76
2024/01/10 02:21:43;;;;;;;0.00;0.00;;;;;;;;;;5006726;28;20109;-76
2024/01/10 02:24:10;;;;;;;0.00;0.00;;;;;;;;;;5004069;28;20949;-77
2024/01/10 02:26:36;;;;;;;0.10;0.10;;;;;;;;;;5006603;28;20552;-77
2024/01/10 02:29:03;;;;;;;0.00;0.00;;;;;;;;;;5010776;28;20500;-76
2024/01/10 02:31:30;;;;;;;0.00;0.00;;;;;;;;;;5011627;28;20153;-76
2024/01/10 02:33:56;;;;;;;0.00;0.00;;;;;;;;;;5016758;28;20157;-76
2024/01/10 02:36:22;;;;;;;0.00;0.00;;;;;;;;;;4987303;28;20054;-76
2024/01/10 02:38:50;;;;;;;0.10;0.10;;;;;;;;;;5011463;28;20049;-77
2024/01/10 02:41:16;;;;;;;0.00;0.00;;;;;;;;;;4994121;28;20058;-76
2024/01/10 02:43:43;;;;;;;0.00;0.00;;;;;;;;;;5014483;28;20089;-76
2024/01/10 02:46:09;;;;;;;0.10;0.10;;;;;;;;;;4991485;28;20093;-78
2024/01/10 02:48:35;;;;;;;0.00;0.00;;;;;;;;;;5003774;28;20656;-76
2024/01/10 02:51:02;;;;;;;0.00;0.00;;;;;;;;;;5003132;28;20061;-76
2024/01/10 02:53:30;;;;;;;0.00;0.00;;;;;;;;;;5018191;28;20050;-76
2024/01/10 02:55:56;;;;;;;0.00;0.00;;;;;;;;;;5004567;28;20050;-77
2024/01/10 02:58:25;;;;;;;0.00;0.00;;;;;;;;;;5015127;28;20053;-76
2024/01/10 03:00:51;;;;;;;0.15;0.15;;;;;;;;;;5010797;28;20133;-76
2024/01/10 03:03:18;;;;;;;0.00;0.00;;;;;;;;;;5008929;28;20054;-76
2024/01/10 03:05:44;;;;;;;0.00;0.00;;;;;;;;;;5005593;28;20050;-76
2024/01/10 03:08:11;;;;;;;0.00;0.00;;;;;;;;;;5007876;28;20073;-78
2024/01/10 03:10:37;;;;;;;0.08;0.08;;;;;;;;;;5005709;28;20149;-76
2024/01/10 03:13:04;;;;;;;0.70;0.70;;;;;;;;;;5009266;28;20051;-76
2024/01/10 03:15:31;;;;;;;0.00;0.00;;;;;;;;;;5007664;28;20080;-76
2024/01/10 03:17:57;;;;;;;0.00;0.00;;;;;;;;;;5009547;28;20093;-77
2024/01/10 03:20:24;;;;;;;0.00;0.00;;;;;;;;;;5016064;28;20138;-76
2024/01/10 03:22:50;;;;;;;0.00;0.00;;;;;;;;;;5017889;28;20060;-76
2024/01/10 03:25:17;;;;;;;0.00;0.00;;;;;;;;;;5010606;28;20444;-76
2024/01/10 03:27:43;;;;;;;0.00;0.00;;;;;;;;;;5005614;28;20054;-76
2024/01/10 03:30:10;;;;;;;0.00;0.00;;;;;;;;;;5003265;28;20106;-76
2024/01/10 03:32:36;;;;;;;0.00;0.00;;;;;;;;;;5012831;28;20054;-76
2024/01/10 03:35:03;;;;;;;0.00;0.00;;;;;;;;;;5010461;28;20543;-76
2024/01/10 03:37:30;;;;;;;0.08;0.08;;;;;;;;;;5011819;28;20065;-76
2024/01/10 03:39:58;;;;;;;0.00;0.00;;;;;;;;;;5011383;28;20093;-76
2024/01/10 03:42:25;;;;;;;0.00;0.00;;;;;;;;;;4991170;28;20077;-76
2024/01/10 03:44:51;;;;;;;0.00;0.00;;;;;;;;;;5007981;28;20148;-76
2024/01/10 03:47:17;;;;;;;0.00;0.00;;;;;;;;;;4990128;28;20060;-77
2024/01/10 03:49:44;;;;;;;0.00;0.00;;;;;;;;;;5015747;28;20170;-76
2024/01/10 03:52:10;;;;;;;0.00;0.00;;;;;;;;;;5003342;28;20080;-76
2024/01/10 03:54:38;;;;;;;0.00;0.00;;;;;;;;;;5005599;28;20058;-76
2024/01/10 03:57:05;;;;;;;0.00;0.00;;;;;;;;;;5009013;28;20059;-75
2024/01/10 03:59:32;;;;;;;0.00;0.00;;;;;;;;;;5017174;28;20523;-76
2024/01/10 04:02:00;;;;;;;0.00;0.00;;;;;;;;;;5018593;28;20887;-76
2024/01/10 04:04:27;;;;;;;0.00;0.00;;;;;;;;;;4988531;28;20113;-78
2024/01/10 04:06:53;;;;;;;0.00;0.00;;;;;;;;;;5006622;28;20514;-76
2024/01/10 04:09:20;;;;;;;0.00;0.00;;;;;;;;;;5010445;28;20059;-76
2024/01/10 04:11:46;;;;;;;0.00;0.00;;;;;;;;;;5014758;28;20062;-76
2024/01/10 04:14:12;;;;;;;0.00;0.00;;;;;;;;;;5007207;28;20061;-77
2024/01/10 04:16:39;;;;;;;0.00;0.00;;;;;;;;;;5010435;28;20572;-76
2024/01/10 04:19:06;;;;;;;0.00;0.00;;;;;;;;;;5013763;28;20073;-76
2024/01/10 04:21:32;;;;;;;0.00;0.00;;;;;;;;;;5007701;28;20057;-76
2024/01/10 04:24:00;;;;;;;0.00;0.00;;;;;;;;;;5008582;28;20070;-76
2024/01/10 04:26:26;;;;;;;0.00;0.00;;;;;;;;;;5018411;28;20054;-77
2024/01/10 04:28:53;;;;;;;0.00;0.00;;;;;;;;;;5013682;28;20054;-76
2024/01/10 04:31:19;;;;;;;0.00;0.00;;;;;;;;;;5018421;28;22210;-76
2024/01/10 04:33:46;;;;;;;0.00;0.00;;;;;;;;;;5007655;28;20578;-76
2024/01/10 04:36:12;;;;;;;0.10;0.10;;;;;;;;;;4991714;28;20064;-76
2024/01/10 04:38:38;;;;;;;0.00;0.00;;;;;;;;;;5007844;28;20093;-77
2024/01/10 04:41:05;;;;;;;0.00;0.00;;;;;;;;;;5009491;28;20119;-77
2024/01/10 04:43:31;;;;;;;0.00;0.00;;;;;;;;;;5007300;28;20533;-76
2024/01/10 04:45:58;;;;;;;0.00;0.00;;;;;;;;;;5006624;28;20361;-76
2024/01/10 04:48:24;;;;;;;0.10;0.10;;;;;;;;;;5009296;28;20150;-76
2024/01/10 04:50:51;;;;;;;33.28;29.88;;;;;;;;;;5008315;28;20046;-76
2024/01/10 04:53:17;;;;;;;0.10;0.10;;;;;;;;;;5008699;28;20509;-76
2024/01/10 04:55:44;;;;;;;0.00;0.00;;;;;;;;;;5001796;28;20055;-76
2024/01/10 04:58:13;;;;;;;0.00;0.00;;;;;;;;;;4991199;28;20054;-77
2024/01/10 05:00:39;;;;;;;0.10;0.10;;;;;;;;;;5009090;28;20094;-77
2024/01/10 05:03:06;;;;;;;0.00;0.00;;;;;;;;;;5009161;28;20064;-76
2024/01/10 05:05:32;;;;;;;0.00;0.00;;;;;;;;;;5008256;28;20141;-76
2024/01/10 05:08:01;;;;;;;0.00;0.00;;;;;;;;;;5008852;28;20583;-76
2024/01/10 05:10:27;;;;;;;0.00;0.00;;;;;;;;;;5007678;28;20120;-76
2024/01/10 05:12:56;;;;;;;0.32;0.32;;;;;;;;;;5006579;28;20074;-76
2024/01/10 05:15:23;;;;;;;0.00;0.00;;;;;;;;;;5007524;28;20086;-77
2024/01/10 05:17:49;;;;;;;0.00;0.00;;;;;;;;;;5008275;28;20062;-76
2024/01/10 05:20:16;;;;;;;0.00;0.00;;;;;;;;;;5008807;28;20088;-76
2024/01/10 05:22:42;;;;;;;0.00;0.00;;;;;;;;;;5008911;28;20062;-76
2024/01/10 05:25:09;;;;;;;0.00;0.00;;;;;;;;;;5007886;28;20051;-77
2024/01/10 05:27:35;;;;;;;0.05;0.05;;;;;;;;;;5008205;28;20132;-76
2024/01/10 05:30:02;;;;;;;0.00;0.00;;;;;;;;;;4985101;28;20053;-76
2024/01/10 05:32:28;;;;;;;0.00;0.00;;;;;;;;;;4991021;28;20109;-76
2024/01/10 05:34:55;;;;;;;0.00;0.00;;;;;;;;;;4990113;28;20085;-76
2024/01/10 05:37:22;;;;;;;0.00;0.00;;;;;;;;;;5008212;28;20058;-77
2024/01/10 05:39:49;;;;;;;0.00;0.00;;;;;;;;;;5001719;28;20058;-77
2024/01/10 05:42:16;;;;;;;0.00;0.00;;;;;;;;;;5008919;28;20066;-76
2024/01/10 05:44:42;;;;;;;0.00;0.00;;;;;;;;;;5008261;28;20086;-76
2024/01/10 05:47:09;;;;;;;0.03;0.03;;;;;;;;;;5004476;28;20134;-77
2024/01/10 05:49:35;;;;;;;0.00;0.00;;;;;;;;;;5008585;28;20058;-76
2024/01/10 05:52:02;;;;;;;0.00;0.00;;;;;;;;;;5008127;28;20137;-76
2024/01/10 05:54:28;;;;;;;0.22;0.22;;;;;;;;;;5008059;28;20062;-76
2024/01/10 05:56:55;;;;;;;0.10;0.10;;;;;;;;;;5006942;28;20046;-78
2024/01/10 05:59:21;;;;;;;0.00;0.00;;;;;;;;;;5008113;28;20137;-77
2024/01/10 06:01:48;;;;;;;0.00;0.00;;;;;;;;;;5007864;28;20054;-76
2024/01/10 06:04:14;;;;;;;0.00;0.00;;;;;;;;;;5001711;28;20513;-76
2024/01/10 06:06:41;;;;;;;0.00;0.00;;;;;;;;;;5007027;28;20059;-76
2024/01/10 06:09:10;;;;;;;0.00;0.00;;;;;;;;;;5007820;28;20085;-77
2024/01/10 06:11:40;;;;;;;0.00;0.00;;;;;;;;;;5006863;28;20525;-76
2024/01/10 06:14:07;;;;;;;0.00;0.00;;;;;;;;;;5008368;28;20521;-76
2024/01/10 06:16:33;;;;;;;0.00;0.00;;;;;;;;;;5007103;28;20054;-77
2024/01/10 06:19:00;;;;;;;0.00;0.00;;;;;;;;;;5007981;28;20062;-76
2024/01/10 06:21:26;;;;;;;0.00;0.00;;;;;;;;;;5004625;28;20058;-76
2024/01/10 06:23:53;;;;;;;0.00;0.00;;;;;;;;;;5003510;28;20046;-77
2024/01/10 06:26:19;;;;;;;0.00;0.00;;;;;;;;;;5007411;28;20054;-77
2024/01/10 06:28:46;;;;;;;0.00;0.00;;;;;;;;;;5006484;28;20133;-77
2024/01/10 06:31:12;;;;;;;0.00;0.00;;;;;;;;;;5004873;28;20152;-77
2024/01/10 06:33:39;;;;;;;0.00;0.00;;;;;;;;;;5007978;28;20058;-78
2024/01/10 06:36:08;;;;;;;0.00;0.00;;;;;;;;;;5007424;28;20054;-78
2024/01/10 06:38:35;;;;;;;0.00;0.00;;;;;;;;;;4983453;28;20137;-77
2024/01/10 06:41:06;;;;;;;0.00;0.00;;;;;;;;;;5007328;28;20054;-77
2024/01/10 06:43:34;;;;;;;0.00;0.00;;;;;;;;;;5007861;28;20444;-77
2024/01/10 06:46:00;;;;;;;0.00;0.00;;;;;;;;;;5007132;28;20121;-77
2024/01/10 06:48:27;;;;;;;0.00;0.00;;;;;;;;;;5006796;28;20150;-77
2024/01/10 06:50:53;;;;;;;0.00;0.00;;;;;;;;;;5003352;28;20556;-76
2024/01/10 06:53:19;;;;;;;0.10;0.10;;;;;;;;;;5007591;28;20113;-77
2024/01/10 06:55:46;;;;;;;0.00;0.00;;;;;;;;;;4982329;28;20050;-77
2024/01/10 06:58:12;;;;;;;0.00;0.00;;;;;;;;;;5011005;28;20150;-77
2024/01/10 07:00:39;;;;;;;0.00;0.00;;;;;;;;;;5007916;28;20895;-77
2024/01/10 07:03:05;;;;;;;0.00;0.00;;;;;;;;;;4994628;28;20137;-77
2024/01/10 07:05:32;;;;;;;0.00;0.00;;;;;;;;;;5012463;28;20172;-77
2024/01/10 07:07:58;;;;;;;0.00;0.00;;;;;;;;;;5012995;28;20158;-77
2024/01/10 07:10:27;;;;;;;0.00;0.00;;;;;;;;;;5006143;28;20722;-77
2024/01/10 07:12:54;;;;;;;0.00;0.00;;;;;;;;;;5009021;28;20058;-77
2024/01/10 07:15:21;;;;;;;0.00;0.00;;;;;;;;;;4996125;28;20065;-77
2024/01/10 07:17:47;;;;;;;0.00;0.00;;;;;;;;;;5007324;28;20504;-77
2024/01/10 07:20:14;;;;;;;0.10;0.10;;;;;;;;;;5011516;28;20062;-78
2024/01/10 07:22:46;;;;;;;0.00;0.00;;;;;;;;;;5010917;28;20113;-78
2024/01/10 07:25:15;;;;;;;0.00;0.00;;;;;;;;;;5009202;28;20060;-77
2024/01/10 07:27:42;;;;;;;0.10;0.10;;;;;;;;;;5004141;28;20059;-77
2024/01/10 07:30:15;;;;;;;0.10;0.10;;;;;;;;;;5012943;28;20054;-77
2024/01/10 07:32:42;;;;;;;0.00;0.00;;;;;;;;;;5007891;28;20058;-77
2024/01/10 07:35:09;;;;;;;0.00;0.00;;;;;;;;;;5001152;28;20791;-77
2024/01/10 07:37:39;;;;;;;0.00;0.00;;;;;;;;;;5011085;28;20082;-77
2024/01/10 07:40:07;;;;;;;0.00;0.00;;;;;;;;;;5009737;28;20062;-77
2024/01/10 07:42:34;;;;;;;0.00;0.00;;;;;;;;;;5007048;28;20054;-77
2024/01/10 07:45:04;;;;;;;0.10;0.10;;;;;;;;;;5003329;28;20137;-77
2024/01/10 07:47:31;;;;;;;0.00;0.00;;;;;;;;;;5007158;28;20744;-77
2024/01/10 07:49:58;;;;;;;11.10;10.52;;;;;;;;;;5017206;28;20266;-78
2024/01/10 07:52:24;;;;;;;0.00;0.00;;;;;;;;;;5004930;28;20592;-78
2024/01/10 07:54:51;;;;;;;0.00;0.00;;;;;;;;;;5011097;28;20067;-77
2024/01/10 07:57:19;;;;;;;0.00;0.00;;;;;;;;;;5011700;28;20505;-77
2024/01/10 07:59:45;;;;;;;0.00;0.00;;;;;;;;;;5013575;28;20054;-76
2024/01/10 08:02:12;;;;;;;0.08;0.08;;;;;;;;;;5008133;28;20582;-77
2024/01/10 08:04:39;;;;;;;0.00;0.00;;;;;;;;;;5003340;28;20120;-78
2024/01/10 08:07:05;;;;;;;0.00;0.00;;;;;;;;;;5001124;28;20054;-78
2024/01/10 08:09:32;;;;;;;0.00;0.00;;;;;;;;;;5008382;28;20050;-78
2024/01/10 08:12:01;;;;;;;0.00;0.00;;;;;;;;;;5019172;28;20054;-78
2024/01/10 08:14:27;;;;;;;0.00;0.00;;;;;;;;;;5012488;28;21033;-77
2024/01/10 08:16:57;;;;;;;0.00;0.00;;;;;;;;;;5006878;28;20065;-79
2024/01/10 08:19:25;;;;;;;0.00;0.00;;;;;;;;;;4992815;28;20515;-78
2024/01/10 08:21:56;;;;;;;0.00;0.00;;;;;;;;;;4992301;28;20206;-78
2024/01/10 08:24:22;;;;;;;0.13;0.13;;;;;;;;;;5005775;28;20137;-78
2024/01/10 08:26:52;;;;;;;0.00;0.00;;;;;;;;;;5014566;28;20058;-77
2024/01/10 08:29:19;;;;;;;0.00;0.00;;;;;;;;;;4994586;28;20479;-77
2024/01/10 08:31:45;;;;;;;0.00;0.00;;;;;;;;;;5005781;28;20050;-78
2024/01/10 08:34:12;;;;;;;0.00;0.00;;;;;;;;;;5014542;28;20489;-78
2024/01/10 08:36:39;;;;;;;0.00;0.00;;;;;;;;;;5018650;28;20097;-78
2024/01/10 08:39:06;;;;;;;0.00;0.00;;;;;;;;;;5007084;28;20089;-77
2024/01/10 08:41:33;;;;;;;0.00;0.00;;;;;;;;;;5005148;28;21146;-77
2024/01/10 08:43:59;;;;;;;0.10;0.10;;;;;;;;;;5010392;28;20061;-77
2024/01/10 08:46:26;;;;;;;0.63;0.63;;;;;;;;;;5007462;28;20061;-77
2024/01/10 08:48:53;;;;;;;0.08;0.08;;;;;;;;;;5106785;23;20058;-78
2024/01/10 08:51:20;;;;;;;0.00;0.00;;;;;;;;;;5046423;28;20064;-78
2024/01/10 08:53:48;;;;;;;0.00;0.00;;;;;;;;;;5065963;28;20056;-79
2024/01/10 08:56:15;;;;;;;0.00;0.00;;;;;;;;;;5041287;28;20728;-79
2024/01/10 08:58:41;;;;;;;0.00;0.00;;;;;;;;;;5034954;28;20131;-79
2024/01/10 09:01:08;;;;;;;0.00;0.00;;;;;;;;;;5041025;28;20994;-79
2024/01/10 09:03:34;;;;;;;0.00;0.00;;;;;;;;;;5068375;28;20052;-79
2024/01/10 09:06:03;;;;;;;0.00;0.00;;;;;;;;;;5067517;28;20056;-79
2024/01/10 09:08:36;;;;;;;0.00;0.00;;;;;;;;;;5041863;28;20038;-79
2024/01/10 09:11:03;;;;;;;0.10;0.10;;;;;;;;;;5048878;28;20041;-78
2024/01/10 09:13:30;;;;;;;0.00;0.00;;;;;;;;;;5039006;28;20808;-79
2024/01/10 09:15:57;;;;;;;0.00;0.00;;;;;;;;;;5065525;28;20045;-79
2024/01/10 09:18:24;;;;;;;0.00;0.00;;;;;;;;;;5051677;28;20544;-79
2024/01/10 09:20:50;;;;;;;0.00;0.00;;;;;;;;;;5067783;28;20103;-78
2024/01/10 09:23:17;;;;;;;0.00;0.00;;;;;;;;;;5038569;28;20085;-79
2024/01/10 09:25:43;;;;;;;0.15;0.15;;;;;;;;;;5048508;28;20131;-80
2024/01/10 09:28:10;;;;;;;0.00;0.00;;;;;;;;;;5060987;28;20057;-80
2024/01/10 09:30:36;;;;;;;0.05;0.05;;;;;;;;;;5041930;28;20539;-79
2024/01/10 09:33:07;;;;;;;;;;;;;;;;;;5076416;28;20053;-78
2024/01/10 09:35:33;;;;;;;0.00;0.00;;;;;;;;;;5051170;28;47045;-79
2024/01/10 09:38:00;;;;;;;0.00;0.00;;;;;;;;;;5048012;28;20053;-78
2024/01/10 09:40:28;;;;;;;0.00;0.00;;;;;;;;;;5056142;28;20057;-77
2024/01/10 09:42:55;;;;;;;0.00;0.00;;;;;;;;;;5044375;28;20052;-78
2024/01/10 09:45:25;;;;;;;0.00;0.00;;;;;;;;;;5065385;28;20462;-77
2024/01/10 09:47:56;;;;;;;0.00;0.00;;;;;;;;;;5046661;28;20079;-78
2024/01/10 09:50:25;;;;;;;0.00;0.00;;;;;;;;;;5046421;28;20557;-78
2024/01/10 09:52:52;;;;;;;0.10;0.10;;;;;;;;;;5062783;28;20056;-79
2024/01/10 09:55:21;;;;;;;0.00;0.00;;;;;;;;;;5044160;28;20463;-79
2024/01/10 09:57:50;;;;;;;0.38;0.35;;;;;;;;;;5044124;28;20084;-78
2024/01/10 10:00:17;;;;;;;0.00;0.00;;;;;;;;;;5040730;28;20076;-78
2024/01/10 10:02:45;;;;;;;0.00;0.00;;;;;;;;;;5047863;28;20056;-77
2024/01/10 10:05:15;;;;;;;0.08;0.08;;;;;;;;;;5048802;28;20048;-78
2024/01/10 10:07:43;;;;;;;0.00;0.00;;;;;;;;;;5060638;28;20061;-77
2024/01/10 10:10:09;;;;;;;0.00;0.00;;;;;;;;;;5046755;28;20048;-77
2024/01/10 10:12:43;;;;;;;0.00;0.00;;;;;;;;;;5047845;28;20085;-78
2024/01/10 10:15:10;;;;;;;0.00;0.00;;;;;;;;;;5043060;28;20057;-77
2024/01/10 10:17:44;;;;;;;0.00;0.00;;;;;;;;;;5046571;28;20142;-78
2024/01/10 10:20:11;;;;;;;0.00;0.00;;;;;;;;;;5046399;28;20068;-77
2024/01/10 10:22:56;;;;;;;0.00;0.00;;;;;;;;;;5043571;28;20049;-78
2024/01/10 10:25:23;;;;;;;0.00;0.00;;;;;;;;;;5060734;28;20136;-79
2024/01/10 10:27:52;;;;;;;0.00;0.00;;;;;;;;;;5047940;28;20057;-78
2024/01/10 10:30:18;;;;;;;0.10;0.10;;;;;;;;;;5067222;28;20503;-78
2024/01/10 10:32:45;;;;;;;0.00;0.00;;;;;;;;;;5049294;28;20073;-78
2024/01/10 10:35:11;;;;;;;0.05;0.05;;;;;;;;;;5046848;28;20057;-78
2024/01/10 10:37:58;;;;;;;0.00;0.00;;;;;;;;;;5051467;28;20132;-78
2024/01/10 10:40:25;;;;;;;1.10;1.10;;;;;;;;;;5043334;28;20053;-77
2024/01/10 10:42:55;;;;;;;0.00;0.00;;;;;;;;;;5046134;28;20053;-78
2024/01/10 10:45:28;;;;;;;0.10;0.10;;;;;;;;;;5067180;28;20134;-78
2024/01/10 10:47:59;;;;;;;0.10;0.10;;;;;;;;;;5041717;28;20077;-78
2024/01/10 10:50:32;;;;;;;0.00;0.00;;;;;;;;;;5050302;28;20049;-78
2024/01/10 10:53:00;;;;;;;0.10;0.10;;;;;;;;;;5044624;28;20068;-78
2024/01/10 10:55:30;;;;;;;0.00;0.00;;;;;;;;;;5044437;28;20025;-78
2024/01/10 10:57:59;;;;;;;0.00;0.00;;;;;;;;;;5066002;28;20131;-78
2024/01/10 11:00:36;;;;;;;0.00;0.00;;;;;;;;;;5067587;28;20149;-78
2024/01/10 11:03:03;;;;;;;0.00;0.00;;;;;;;;;;5044968;28;20102;-78
2024/01/10 11:05:30;;;;;;;0.00;0.00;;;;;;;;;;5043006;28;20069;-78
2024/01/10 11:07:58;;;;;;;0.10;0.10;;;;;;;;;;5063843;28;20068;-78
2024/01/10 11:10:27;;;;;;;0.10;0.10;;;;;;;;;;5042246;28;20065;-79
2024/01/10 11:13:15;;;;;;;0.10;0.10;;;;;;;;;;5049138;28;20056;-78
2024/01/10 11:16:02;;;;;;;0.10;0.10;;;;;;;;;;5060191;28;20519;-78
2024/01/10 11:18:47;;;;;;;0.10;0.10;;;;;;;;;;5038657;28;20895;-78
2024/01/10 11:21:20;;;;;;;0.10;0.10;;;;;;;;;;5047117;28;20589;-77
2024/01/10 11:23:48;;;;;;;0.00;0.00;;;;;;;;;;5064049;28;20049;-78
2024/01/10 11:26:15;;;;;;;5.00;4.53;;;;;;;;;;5038098;28;20061;-78
2024/01/10 11:28:42;;;;;;;0.00;0.00;;;;;;;;;;5044624;28;20107;-78
2024/01/10 11:31:08;;;;;;;0.05;0.05;;;;;;;;;;5048254;28;20049;-78
2024/01/10 11:33:44;;;;;;;0.10;0.10;;;;;;;;;;5037713;28;20143;-78
2024/01/10 11:36:15;;;;;;;0.10;0.10;;;;;;;;;;5044198;28;20061;-78
2024/01/10 11:38:43;;;;;;;0.10;0.10;;;;;;;;;;5048154;28;20487;-77
2024/01/10 11:41:10;;;;;;;0.00;0.00;;;;;;;;;;5050508;28;20063;-78
2024/01/10 11:43:37;;;;;;;0.00;0.00;;;;;;;;;;5062196;28;20052;-78
2024/01/10 11:46:05;;;;;;;0.00;0.00;;;;;;;;;;5042477;28;20053;-78
2024/01/10 11:48:32;;;;;;;0.00;0.00;;;;;;;;;;5041484;28;20521;-78
2024/01/10 11:50:59;;;;;;;0.00;0.00;;;;;;;;;;5067239;28;20045;-78
2024/01/10 11:53:39;;;;;;;0.00;0.00;;;;;;;;;;5042836;28;20065;-78
2024/01/10 11:56:11;;;;;;;0.10;0.10;;;;;;;;;;5041154;28;20057;-78
2024/01/10 11:58:58;;;;;;;0.00;0.00;;;;;;;;;;5040981;28;20863;-78
2024/01/10 12:01:24;;;;;;;0.03;0.03;;;;;;;;;;5059059;28;20544;-78
2024/01/10 12:03:51;;;;;;;0.10;0.10;;;;;;;;;;5040061;28;20124;-78
2024/01/10 12:06:38;;;;;;;0.10;0.10;;;;;;;;;;5048402;28;20041;-78
2024/01/10 12:09:08;;;;;;;0.00;0.00;;;;;;;;;;5041017;28;20049;-78
2024/01/10 12:11:35;;;;;;;0.10;0.10;;;;;;;;;;5045189;28;20139;-77
2024/01/10 12:14:02;;;;;;;0.10;0.10;;;;;;;;;;5045899;28;20076;-78
2024/01/10 12:16:29;;;;;;;0.00;0.00;;;;;;;;;;5042381;28;20127;-77
2024/01/10 12:18:55;;;;;;;0.00;0.00;;;;;;;;;;5046118;28;20494;-77
2024/01/10 12:21:22;;;;;;;0.00;0.00;;;;;;;;;;5045566;28;20056;-78
2024/01/10 12:23:51;;;;;;;0.38;0.38;;;;;;;;;;5046025;28;20081;-77
2024/01/10 12:26:18;;;;;;;0.00;0.00;;;;;;;;;;5035666;28;20060;-78
2024/01/10 12:28:57;;;;;;;0.00;0.00;;;;;;;;;;5049975;28;20084;-78
2024/01/10 12:31:26;;;;;;;0.00;0.00;;;;;;;;;;5042522;28;20104;-78
2024/01/10 12:33:55;;;;;;;0.45;0.45;;;;;;;;;;5064380;28;20053;-77
2024/01/10 12:36:21;;;;;;;2.60;2.40;;;;;;;;;;5062284;28;20096;-78
2024/01/10 12:38:48;;;;;;;0.00;0.00;;;;;;;;;;5044315;28;20107;-78
2024/01/10 12:41:15;;;;;;;0.00;0.00;;;;;;;;;;5037974;28;20068;-78
2024/01/10 12:43:41;;;;;;;0.10;0.10;;;;;;;;;;5064556;28;20487;-78
2024/01/10 12:46:11;;;;;;;0.10;0.10;;;;;;;;;;5066987;28;20049;-77
2024/01/10 12:48:41;;;;;;;0.10;0.10;;;;;;;;;;5048713;28;20053;-77
2024/01/10 12:51:08;;;;;;;0.08;0.08;;;;;;;;;;5053747;28;20753;-78
2024/01/10 12:53:35;;;;;;;0.00;0.00;;;;;;;;;;5070256;28;20061;-77
2024/01/10 12:56:06;;;;;;;0.10;0.10;;;;;;;;;;5051744;28;20045;-78
2024/01/10 12:58:33;;;;;;;0.00;0.00;;;;;;;;;;5066375;28;20048;-78
2024/01/10 13:00:59;;;;;;;0.10;0.10;;;;;;;;;;5071264;28;20057;-78
2024/01/10 13:03:26;;;;;;;0.10;0.10;;;;;;;;;;5062770;28;20057;-79
2024/01/10 13:05:53;;;;;;;0.10;0.10;;;;;;;;;;5047036;28;20040;-78
2024/01/10 13:08:19;;;;;;;0.00;0.00;;;;;;;;;;5053755;28;20524;-79
2024/01/10 13:10:47;;;;;;;0.10;0.10;;;;;;;;;;5039321;28;20057;-78
2024/01/10 13:13:21;;;;;;;0.00;0.00;;;;;;;;;;5067977;28;20056;-77
2024/01/10 13:15:48;;;;;;;0.10;0.10;;;;;;;;;;5047103;28;20060;-78
2024/01/10 13:18:15;;;;;;;0.10;0.10;;;;;;;;;;5053438;28;20056;-79
2024/01/10 13:20:43;;;;;;;0.10;0.10;;;;;;;;;;5053284;28;20138;-78
2024/01/10 13:23:09;;;;;;;0.10;0.10;;;;;;;;;;5070731;28;20057;-78
2024/01/10 13:25:37;;;;;;;0.10;0.10;;;;;;;;;;5042608;28;20045;-78
2024/01/10 13:28:04;;;;;;;0.10;0.10;;;;;;;;;;5051006;28;20059;-79
2024/01/10 13:30:30;;;;;;;0.17;0.17;;;;;;;;;;5051967;28;20056;-79
2024/01/10 13:32:58;;;;;;;0.40;0.40;;;;;;;;;;5071152;28;20055;-78
2024/01/10 13:35:24;;;;;;;0.50;0.50;;;;;;;;;;5060810;28;20115;-79
2024/01/10 13:37:51;;;;;;;0.10;0.10;;;;;;;;;;5045418;28;20053;-78
2024/01/10 13:40:20;;;;;;;0.15;0.15;;;;;;;;;;5046752;28;20083;-78
2024/01/10 13:42:46;;;;;;;0.28;0.28;;;;;;;;;;5051458;28;20053;-78
2024/01/10 13:45:13;;;;;;;0.10;0.10;;;;;;;;;;5061400;28;20038;-78
2024/01/10 13:47:40;;;;;;;0.10;0.10;;;;;;;;;;5059837;28;20110;-77
2024/01/10 13:50:08;;;;;;;0.10;0.10;;;;;;;;;;5038261;28;20586;-78
2024/01/10 13:52:35;;;;;;;2.70;2.50;;;;;;;;;;5049136;28;20061;-78
2024/01/10 13:55:04;;;;;;;0.10;0.10;;;;;;;;;;5067484;28;20115;-78
2024/01/10 13:57:32;;;;;;;0.10;0.10;;;;;;;;;;5045865;28;20101;-78
2024/01/10 13:59:59;;;;;;;0.10;0.10;;;;;;;;;;5062591;28;20072;-77
2024/01/10 14:02:26;;;;;;;0.10;0.10;;;;;;;;;;5042085;28;20053;-77
2024/01/10 14:04:57;;;;;;;0.05;0.05;;;;;;;;;;5035011;28;20057;-77
2024/01/10 14:07:24;;;;;;;0.10;0.10;;;;;;;;;;5041190;28;20824;-77
2024/01/10 14:09:54;;;;;;;0.10;0.10;;;;;;;;;;5041843;28;20056;-77
2024/01/10 14:12:20;;;;;;;0.10;0.10;;;;;;;;;;5064533;28;20053;-77
2024/01/10 14:14:47;;;;;;;0.10;0.10;;;;;;;;;;5037498;28;20435;-77
2024/01/10 14:17:13;;;;;;;0.10;0.10;;;;;;;;;;5041901;28;20049;-77
2024/01/10 14:19:40;;;;;;;0.10;0.10;;;;;;;;;;5047170;28;20939;-78
2024/01/10 14:22:06;;;;;;;0.50;0.50;;;;;;;;;;5043156;28;20306;-78
2024/01/10 14:24:43;;;;;;;0.10;0.10;;;;;;;;;;5039542;28;20549;-78
2024/01/10 14:27:09;;;;;;;0.05;0.05;;;;;;;;;;5054040;28;20065;-77
2024/01/10 14:29:37;;;;;;;0.10;0.10;;;;;;;;;;5037690;28;20057;-78
2024/01/10 14:32:03;;;;;;;0.43;0.43;;;;;;;;;;5042335;28;20079;-78
2024/01/10 14:34:34;;;;;;;0.10;0.10;;;;;;;;;;5046048;28;20056;-78
2024/01/10 14:37:01;;;;;;;0.10;0.10;;;;;;;;;;5065738;28;20053;-78
2024/01/10 14:39:27;;;;;;;0.10;0.10;;;;;;;;;;5064126;28;20049;-78
2024/01/10 14:41:54;;;;;;;0.00;0.00;;;;;;;;;;5064559;28;20056;-78
2024/01/10 14:44:20;;;;;;;0.10;0.10;;;;;;;;;;5044464;28;20054;-78
2024/01/10 14:46:47;;;;;;;0.10;0.10;;;;;;;;;;5063339;28;20857;-78